sensor_id;sensor_type;location;lat;lon;timestamp;temperature;humidity
2363;DHT22;64265;51.664;7.626;2023-03-23T00:02:12;20.90;77.90
2363;DHT22;64265;51.664;7.626;2023-03-23T00:04:38;20.90;77.90
2363;DHT22;64265;51.664;7.626;2023-03-23T00:07:08;20.90;77.90
2363;DHT22;64265;51.664;7.626;2023-03-23T00:09:34;20.90;77.90
2363;DHT22;64265;51.664;7.626;2023-03-23T00:12:06;20.90;77.90
2363;DHT22;64265;51.664;7.626;2023-03-23T00:14:34;20.90;78.00
2363;DHT22;64265;51.664;7.626;2023-03-23T00:17:08;20.90;78.20
2363;DHT22;64265;51.664;7.626;2023-03-23T00:19:37;20.80;77.90
2363;DHT22;64265;51.664;7.626;2023-03-23T00:22:12;20.80;77.90
2363;DHT22;64265;51.664;7.626;2023-03-23T00:24:38;20.80;77.90
2363;DHT22;64265;51.664;7.626;2023-03-23T00:27:05;20.80;77.90
2363;DHT22;64265;51.664;7.626;2023-03-23T00:29:35;20.80;77.90
2363;DHT22;64265;51.664;7.626;2023-03-23T00:32:02;20.80;77.90
2363;DHT22;64265;51.664;7.626;2023-03-23T00:34:28;20.80;77.90
2363;DHT22;64265;51.664;7.626;2023-03-23T00:36:59;20.80;77.90
2363;DHT22;64265;51.664;7.626;2023-03-23T00:39:27;20.80;78.00
2363;DHT22;64265;51.664;7.626;2023-03-23T00:41:55;20.80;77.90
2363;DHT22;64265;51.664;7.626;2023-03-23T00:44:26;20.80;78.00
2363;DHT22;64265;51.664;7.626;2023-03-23T00:46:55;20.70;77.90
2363;DHT22;64265;51.664;7.626;2023-03-23T00:49:23;20.70;77.90
2363;DHT22;64265;51.664;7.626;2023-03-23T00:51:51;20.70;78.00
2363;DHT22;64265;51.664;7.626;2023-03-23T00:54:18;20.70;78.70
2363;DHT22;64265;51.664;7.626;2023-03-23T00:56:45;20.70;77.90
2363;DHT22;64265;51.664;7.626;2023-03-23T00:59:12;20.70;78.00
2363;DHT22;64265;51.664;7.626;2023-03-23T01:01:39;20.70;77.90
2363;DHT22;64265;51.664;7.626;2023-03-23T01:04:08;20.70;78.00
2363;DHT22;64265;51.664;7.626;2023-03-23T01:06:39;20.70;78.00
2363;DHT22;64265;51.664;7.626;2023-03-23T01:09:09;20.70;78.00
2363;DHT22;64265;51.664;7.626;2023-03-23T01:11:36;20.70;78.00
2363;DHT22;64265;51.664;7.626;2023-03-23T01:14:04;20.60;77.90
2363;DHT22;64265;51.664;7.626;2023-03-23T01:16:31;20.70;78.00
2363;DHT22;64265;51.664;7.626;2023-03-23T01:18:57;20.60;77.90
2363;DHT22;64265;51.664;7.626;2023-03-23T01:21:25;20.60;77.90
2363;DHT22;64265;51.664;7.626;2023-03-23T01:23:52;20.60;77.90
2363;DHT22;64265;51.664;7.626;2023-03-23T01:26:21;20.60;78.00
2363;DHT22;64265;51.664;7.626;2023-03-23T01:28:49;20.60;78.00
2363;DHT22;64265;51.664;7.626;2023-03-23T01:31:17;20.60;78.00
2363;DHT22;64265;51.664;7.626;2023-03-23T01:33:45;20.60;78.00
2363;DHT22;64265;51.664;7.626;2023-03-23T01:36:14;20.60;78.00
2363;DHT22;64265;51.664;7.626;2023-03-23T01:38:43;20.60;78.00
2363;DHT22;64265;51.664;7.626;2023-03-23T01:41:11;20.60;78.10
2363;DHT22;64265;51.664;7.626;2023-03-23T01:43:54;20.60;78.00
2363;DHT22;64265;51.664;7.626;2023-03-23T01:46:21;20.60;78.90
2363;DHT22;64265;51.664;7.626;2023-03-23T01:48:49;20.60;78.10
2363;DHT22;64265;51.664;7.626;2023-03-23T01:51:17;20.50;78.00
2363;DHT22;64265;51.664;7.626;2023-03-23T01:53:50;20.50;78.00
2363;DHT22;64265;51.664;7.626;2023-03-23T01:56:21;20.50;78.00
2363;DHT22;64265;51.664;7.626;2023-03-23T01:58:51;20.50;78.00
2363;DHT22;64265;51.664;7.626;2023-03-23T02:01:18;20.50;78.00
2363;DHT22;64265;51.664;7.626;2023-03-23T02:03:50;20.50;78.00
2363;DHT22;64265;51.664;7.626;2023-03-23T02:06:18;20.50;78.10
2363;DHT22;64265;51.664;7.626;2023-03-23T02:08:46;20.50;78.00
2363;DHT22;64265;51.664;7.626;2023-03-23T02:11:15;20.50;78.10
2363;DHT22;64265;51.664;7.626;2023-03-23T02:13:43;20.50;78.10
2363;DHT22;64265;51.664;7.626;2023-03-23T02:16:17;20.50;78.10
2363;DHT22;64265;51.664;7.626;2023-03-23T02:19:06;20.50;78.10
2363;DHT22;64265;51.664;7.626;2023-03-23T02:22:06;20.50;78.10
2363;DHT22;64265;51.664;7.626;2023-03-23T02:24:53;20.50;78.10
2363;DHT22;64265;51.664;7.626;2023-03-23T02:27:34;20.40;78.00
2363;DHT22;64265;51.664;7.626;2023-03-23T02:30:20;20.40;78.00
2363;DHT22;64265;51.664;7.626;2023-03-23T02:35:51;20.40;78.00
2363;DHT22;64265;51.664;7.626;2023-03-23T02:38:21;20.40;78.00
2363;DHT22;64265;51.664;7.626;2023-03-23T02:40:50;20.40;78.00
2363;DHT22;64265;51.664;7.626;2023-03-23T02:43:20;20.40;78.10
2363;DHT22;64265;51.664;7.626;2023-03-23T02:45:47;20.40;78.10
2363;DHT22;64265;51.664;7.626;2023-03-23T02:48:18;20.40;78.10
2363;DHT22;64265;51.664;7.626;2023-03-23T02:50:51;20.40;78.10
2363;DHT22;64265;51.664;7.626;2023-03-23T02:53:20;20.40;78.10
2363;DHT22;64265;51.664;7.626;2023-03-23T02:55:48;20.40;78.10
2363;DHT22;64265;51.664;7.626;2023-03-23T02:58:15;20.40;78.10
2363;DHT22;64265;51.664;7.626;2023-03-23T03:00:42;20.40;78.10
2363;DHT22;64265;51.664;7.626;2023-03-23T03:03:12;20.40;78.10
2363;DHT22;64265;51.664;7.626;2023-03-23T03:05:44;20.40;78.10
2363;DHT22;64265;51.664;7.626;2023-03-23T03:08:21;20.40;78.20
2363;DHT22;64265;51.664;7.626;2023-03-23T03:10:54;20.30;78.00
2363;DHT22;64265;51.664;7.626;2023-03-23T03:13:35;20.30;78.10
2363;DHT22;64265;51.664;7.626;2023-03-23T03:16:15;20.30;78.10
2363;DHT22;64265;51.664;7.626;2023-03-23T03:18:47;20.30;78.10
2363;DHT22;64265;51.664;7.626;2023-03-23T03:21:17;20.30;78.10
2363;DHT22;64265;51.664;7.626;2023-03-23T03:23:47;20.30;78.10
2363;DHT22;64265;51.664;7.626;2023-03-23T03:26:17;20.30;78.10
2363;DHT22;64265;51.664;7.626;2023-03-23T03:28:47;20.30;78.10
2363;DHT22;64265;51.664;7.626;2023-03-23T03:31:17;20.30;78.10
2363;DHT22;64265;51.664;7.626;2023-03-23T03:33:45;20.30;78.10
2363;DHT22;64265;51.664;7.626;2023-03-23T03:36:15;20.30;78.60
2363;DHT22;64265;51.664;7.626;2023-03-23T03:38:43;20.30;78.10
2363;DHT22;64265;51.664;7.626;2023-03-23T03:41:11;20.30;78.10
2363;DHT22;64265;51.664;7.626;2023-03-23T03:43:38;20.30;78.10
2363;DHT22;64265;51.664;7.626;2023-03-23T03:46:05;20.30;78.10
2363;DHT22;64265;51.664;7.626;2023-03-23T03:48:32;20.20;78.00
2363;DHT22;64265;51.664;7.626;2023-03-23T03:50:59;20.20;78.00
2363;DHT22;64265;51.664;7.626;2023-03-23T03:53:27;20.30;78.10
2363;DHT22;64265;51.664;7.626;2023-03-23T03:55:54;20.20;78.00
2363;DHT22;64265;51.664;7.626;2023-03-23T03:58:32;20.20;78.00
2363;DHT22;64265;51.664;7.626;2023-03-23T04:01:02;20.20;78.00
2363;DHT22;64265;51.664;7.626;2023-03-23T04:03:28;20.20;78.00
2363;DHT22;64265;51.664;7.626;2023-03-23T04:05:55;20.20;78.00
2363;DHT22;64265;51.664;7.626;2023-03-23T04:08:24;20.20;78.00
2363;DHT22;64265;51.664;7.626;2023-03-23T04:10:52;20.20;78.00
2363;DHT22;64265;51.664;7.626;2023-03-23T04:13:19;20.20;78.80
2363;DHT22;64265;51.664;7.626;2023-03-23T04:15:47;20.20;78.00
2363;DHT22;64265;51.664;7.626;2023-03-23T04:18:16;20.20;78.10
2363;DHT22;64265;51.664;7.626;2023-03-23T04:20:43;20.20;78.00
2363;DHT22;64265;51.664;7.626;2023-03-23T04:23:12;20.20;78.00
2363;DHT22;64265;51.664;7.626;2023-03-23T04:25:39;20.20;78.10
2363;DHT22;64265;51.664;7.626;2023-03-23T04:28:07;20.20;78.10
2363;DHT22;64265;51.664;7.626;2023-03-23T04:30:36;20.20;78.10
2363;DHT22;64265;51.664;7.626;2023-03-23T04:33:04;20.10;78.00
2363;DHT22;64265;51.664;7.626;2023-03-23T04:35:31;20.10;78.00
2363;DHT22;64265;51.664;7.626;2023-03-23T04:37:59;20.10;78.00
2363;DHT22;64265;51.664;7.626;2023-03-23T04:40:26;20.10;78.00
2363;DHT22;64265;51.664;7.626;2023-03-23T04:42:52;20.10;78.00
2363;DHT22;64265;51.664;7.626;2023-03-23T04:45:22;20.10;78.00
2363;DHT22;64265;51.664;7.626;2023-03-23T04:47:51;20.10;78.00
2363;DHT22;64265;51.664;7.626;2023-03-23T04:50:27;20.10;78.00
2363;DHT22;64265;51.664;7.626;2023-03-23T04:52:56;20.10;78.00
2363;DHT22;64265;51.664;7.626;2023-03-23T04:55:24;20.10;78.00
2363;DHT22;64265;51.664;7.626;2023-03-23T04:57:51;20.10;78.00
2363;DHT22;64265;51.664;7.626;2023-03-23T05:00:18;20.10;78.10
2363;DHT22;64265;51.664;7.626;2023-03-23T05:02:46;20.10;78.00
2363;DHT22;64265;51.664;7.626;2023-03-23T05:05:17;20.10;78.10
2363;DHT22;64265;51.664;7.626;2023-03-23T05:07:46;20.10;78.10
2363;DHT22;64265;51.664;7.626;2023-03-23T05:10:13;20.10;78.20
2363;DHT22;64265;51.664;7.626;2023-03-23T05:12:40;20.10;78.10
2363;DHT22;64265;51.664;7.626;2023-03-23T05:15:08;20.10;78.10
2363;DHT22;64265;51.664;7.626;2023-03-23T05:17:36;20.10;78.10
2363;DHT22;64265;51.664;7.626;2023-03-23T05:20:05;20.10;78.10
2363;DHT22;64265;51.664;7.626;2023-03-23T05:22:33;20.10;78.10
2363;DHT22;64265;51.664;7.626;2023-03-23T05:25:03;20.10;78.10
2363;DHT22;64265;51.664;7.626;2023-03-23T05:27:31;20.10;78.10
2363;DHT22;64265;51.664;7.626;2023-03-23T05:29:58;20.00;78.00
2363;DHT22;64265;51.664;7.626;2023-03-23T05:32:26;20.00;77.90
2363;DHT22;64265;51.664;7.626;2023-03-23T05:34:55;20.00;78.00
2363;DHT22;64265;51.664;7.626;2023-03-23T05:37:22;20.00;78.00
2363;DHT22;64265;51.664;7.626;2023-03-23T05:39:48;20.00;78.00
2363;DHT22;64265;51.664;7.626;2023-03-23T05:42:20;20.00;78.00
2363;DHT22;64265;51.664;7.626;2023-03-23T05:44:47;20.00;78.00
2363;DHT22;64265;51.664;7.626;2023-03-23T05:47:13;20.00;78.10
2363;DHT22;64265;51.664;7.626;2023-03-23T05:49:40;20.00;78.10
2363;DHT22;64265;51.664;7.626;2023-03-23T05:52:07;20.00;78.10
2363;DHT22;64265;51.664;7.626;2023-03-23T05:54:34;20.00;78.10
2363;DHT22;64265;51.664;7.626;2023-03-23T05:57:01;20.00;78.10
2363;DHT22;64265;51.664;7.626;2023-03-23T05:59:29;20.00;78.10
2363;DHT22;64265;51.664;7.626;2023-03-23T06:01:56;20.00;78.10
2363;DHT22;64265;51.664;7.626;2023-03-23T06:04:23;20.00;78.10
2363;DHT22;64265;51.664;7.626;2023-03-23T06:06:50;20.00;78.10
2363;DHT22;64265;51.664;7.626;2023-03-23T06:09:17;20.00;78.10
2363;DHT22;64265;51.664;7.626;2023-03-23T06:11:43;20.00;78.10
2363;DHT22;64265;51.664;7.626;2023-03-23T06:14:11;19.90;78.10
2363;DHT22;64265;51.664;7.626;2023-03-23T06:16:39;20.00;78.20
2363;DHT22;64265;51.664;7.626;2023-03-23T06:19:06;20.00;78.00
2363;DHT22;64265;51.664;7.626;2023-03-23T06:21:33;20.00;78.70
2363;DHT22;64265;51.664;7.626;2023-03-23T06:24:00;20.00;77.70
2363;DHT22;64265;51.664;7.626;2023-03-23T06:26:28;20.00;77.70
2363;DHT22;64265;51.664;7.626;2023-03-23T06:28:56;20.10;77.70
2363;DHT22;64265;51.664;7.626;2023-03-23T06:31:23;20.10;77.70
2363;DHT22;64265;51.664;7.626;2023-03-23T06:33:52;20.10;77.70
2363;DHT22;64265;51.664;7.626;2023-03-23T06:36:18;20.10;77.70
2363;DHT22;64265;51.664;7.626;2023-03-23T06:38:45;20.10;77.70
2363;DHT22;64265;51.664;7.626;2023-03-23T06:41:12;20.10;77.70
2363;DHT22;64265;51.664;7.626;2023-03-23T06:43:39;20.10;77.70
2363;DHT22;64265;51.664;7.626;2023-03-23T06:46:06;20.10;77.70
2363;DHT22;64265;51.664;7.626;2023-03-23T06:48:33;20.10;77.70
2363;DHT22;64265;51.664;7.626;2023-03-23T06:51:01;20.10;77.60
2363;DHT22;64265;51.664;7.626;2023-03-23T06:53:28;20.10;77.60
2363;DHT22;64265;51.664;7.626;2023-03-23T06:55:55;20.10;77.60
2363;DHT22;64265;51.664;7.626;2023-03-23T06:58:22;20.10;77.70
2363;DHT22;64265;51.664;7.626;2023-03-23T07:00:53;20.10;77.60
2363;DHT22;64265;51.664;7.626;2023-03-23T07:03:22;20.10;77.60
2363;DHT22;64265;51.664;7.626;2023-03-23T07:05:49;20.20;77.70
2363;DHT22;64265;51.664;7.626;2023-03-23T07:08:17;20.20;78.50
2363;DHT22;64265;51.664;7.626;2023-03-23T07:10:44;20.20;77.70
2363;DHT22;64265;51.664;7.626;2023-03-23T07:13:11;20.20;77.60
2363;DHT22;64265;51.664;7.626;2023-03-23T07:15:38;20.30;77.80
2363;DHT22;64265;51.664;7.626;2023-03-23T07:18:05;20.30;77.60
2363;DHT22;64265;51.664;7.626;2023-03-23T07:20:32;20.30;77.70
2363;DHT22;64265;51.664;7.626;2023-03-23T07:22:59;20.30;77.60
2363;DHT22;64265;51.664;7.626;2023-03-23T07:25:28;20.30;77.50
2363;DHT22;64265;51.664;7.626;2023-03-23T07:27:55;20.30;77.60
2363;DHT22;64265;51.664;7.626;2023-03-23T07:30:22;20.30;77.60
2363;DHT22;64265;51.664;7.626;2023-03-23T07:32:49;20.40;77.70
2363;DHT22;64265;51.664;7.626;2023-03-23T07:35:16;20.40;77.60
2363;DHT22;64265;51.664;7.626;2023-03-23T07:37:43;20.40;77.70
2363;DHT22;64265;51.664;7.626;2023-03-23T07:40:11;20.40;77.70
2363;DHT22;64265;51.664;7.626;2023-03-23T07:42:43;20.40;77.60
2363;DHT22;64265;51.664;7.626;2023-03-23T07:45:11;20.40;77.60
2363;DHT22;64265;51.664;7.626;2023-03-23T07:47:38;20.40;77.60
2363;DHT22;64265;51.664;7.626;2023-03-23T07:50:07;20.40;77.60
2363;DHT22;64265;51.664;7.626;2023-03-23T07:52:34;20.40;77.70
2363;DHT22;64265;51.664;7.626;2023-03-23T07:55:01;20.40;77.60
2363;DHT22;64265;51.664;7.626;2023-03-23T07:57:28;20.40;77.60
2363;DHT22;64265;51.664;7.626;2023-03-23T07:59:57;20.40;77.50
2363;DHT22;64265;51.664;7.626;2023-03-23T08:02:25;20.40;77.50
2363;DHT22;64265;51.664;7.626;2023-03-23T08:04:52;20.40;77.50
2363;DHT22;64265;51.664;7.626;2023-03-23T08:07:22;20.40;77.50
2363;DHT22;64265;51.664;7.626;2023-03-23T08:09:48;20.50;78.40
2363;DHT22;64265;51.664;7.626;2023-03-23T08:12:15;20.50;77.50
2363;DHT22;64265;51.664;7.626;2023-03-23T08:14:42;20.50;77.50
2363;DHT22;64265;51.664;7.626;2023-03-23T08:17:10;20.50;77.60
2363;DHT22;64265;51.664;7.626;2023-03-23T08:19:37;20.50;77.60
2363;DHT22;64265;51.664;7.626;2023-03-23T08:22:04;20.50;77.60
2363;DHT22;64265;51.664;7.626;2023-03-23T08:24:30;20.50;77.50
2363;DHT22;64265;51.664;7.626;2023-03-23T08:26:58;20.50;77.50
2363;DHT22;64265;51.664;7.626;2023-03-23T08:29:24;20.50;77.50
2363;DHT22;64265;51.664;7.626;2023-03-23T08:31:51;20.50;77.60
2363;DHT22;64265;51.664;7.626;2023-03-23T08:34:20;20.50;77.50
2363;DHT22;64265;51.664;7.626;2023-03-23T08:36:46;20.50;77.50
2363;DHT22;64265;51.664;7.626;2023-03-23T08:39:13;20.60;77.60
2363;DHT22;64265;51.664;7.626;2023-03-23T08:41:41;20.60;77.60
2363;DHT22;64265;51.664;7.626;2023-03-23T08:44:10;20.60;77.60
2363;DHT22;64265;51.664;7.626;2023-03-23T08:46:37;20.60;77.60
2363;DHT22;64265;51.664;7.626;2023-03-23T08:49:04;20.60;77.60
2363;DHT22;64265;51.664;7.626;2023-03-23T08:51:33;20.60;77.50
2363;DHT22;64265;51.664;7.626;2023-03-23T08:54:00;20.60;77.50
2363;DHT22;64265;51.664;7.626;2023-03-23T08:56:26;20.60;77.50
2363;DHT22;64265;51.664;7.626;2023-03-23T08:58:53;20.60;78.30
2363;DHT22;64265;51.664;7.626;2023-03-23T09:01:20;20.60;77.50
2363;DHT22;64265;51.664;7.626;2023-03-23T09:03:47;20.60;77.50
2363;DHT22;64265;51.664;7.626;2023-03-23T09:06:14;20.60;77.40
2363;DHT22;64265;51.664;7.626;2023-03-23T09:08:42;20.60;77.40
2363;DHT22;64265;51.664;7.626;2023-03-23T09:11:10;20.60;77.40
2363;DHT22;64265;51.664;7.626;2023-03-23T09:13:38;20.60;77.40
2363;DHT22;64265;51.664;7.626;2023-03-23T09:16:06;20.60;77.30
2363;DHT22;64265;51.664;7.626;2023-03-23T09:18:34;20.70;77.50
2363;DHT22;64265;51.664;7.626;2023-03-23T09:21:02;20.70;77.50
2363;DHT22;64265;51.664;7.626;2023-03-23T09:23:30;20.70;77.60
2363;DHT22;64265;51.664;7.626;2023-03-23T09:26:00;20.70;77.50
2363;DHT22;64265;51.664;7.626;2023-03-23T09:28:27;20.70;77.00
2363;DHT22;64265;51.664;7.626;2023-03-23T09:30:55;20.70;76.80
2363;DHT22;64265;51.664;7.626;2023-03-23T09:33:23;20.60;76.70
2363;DHT22;64265;51.664;7.626;2023-03-23T09:35:50;20.60;76.70
2363;DHT22;64265;51.664;7.626;2023-03-23T09:38:17;20.60;77.90
2363;DHT22;64265;51.664;7.626;2023-03-23T09:40:47;20.60;77.40
2363;DHT22;64265;51.664;7.626;2023-03-23T09:43:33;20.60;77.30
2363;DHT22;64265;51.664;7.626;2023-03-23T09:46:29;20.60;77.10
2363;DHT22;64265;51.664;7.626;2023-03-23T09:48:59;20.60;77.00
2363;DHT22;64265;51.664;7.626;2023-03-23T09:51:35;20.60;76.90
2363;DHT22;64265;51.664;7.626;2023-03-23T09:54:16;20.60;76.70
2363;DHT22;64265;51.664;7.626;2023-03-23T09:56:45;20.60;76.70
2363;DHT22;64265;51.664;7.626;2023-03-23T09:59:17;20.60;76.60
2363;DHT22;64265;51.664;7.626;2023-03-23T10:01:47;20.60;76.60
2363;DHT22;64265;51.664;7.626;2023-03-23T10:04:23;20.60;76.50
2363;DHT22;64265;51.664;7.626;2023-03-23T10:06:51;20.60;76.50
2363;DHT22;64265;51.664;7.626;2023-03-23T10:09:19;20.60;76.50
2363;DHT22;64265;51.664;7.626;2023-03-23T10:11:56;20.60;76.40
2363;DHT22;64265;51.664;7.626;2023-03-23T10:14:33;20.60;76.40
2363;DHT22;64265;51.664;7.626;2023-03-23T10:17:11;20.60;76.40
2363;DHT22;64265;51.664;7.626;2023-03-23T10:19:46;20.60;76.50
2363;DHT22;64265;51.664;7.626;2023-03-23T10:22:15;20.60;76.30
2363;DHT22;64265;51.664;7.626;2023-03-23T10:24:50;20.60;76.40
2363;DHT22;64265;51.664;7.626;2023-03-23T10:27:22;20.60;76.30
2363;DHT22;64265;51.664;7.626;2023-03-23T10:29:55;20.60;76.30
2363;DHT22;64265;51.664;7.626;2023-03-23T10:32:37;20.60;76.30
2363;DHT22;64265;51.664;7.626;2023-03-23T10:35:09;20.60;76.40
2363;DHT22;64265;51.664;7.626;2023-03-23T10:37:41;20.60;76.30
2363;DHT22;64265;51.664;7.626;2023-03-23T10:40:14;20.60;76.30
2363;DHT22;64265;51.664;7.626;2023-03-23T10:42:42;20.60;76.40
2363;DHT22;64265;51.664;7.626;2023-03-23T10:45:17;20.60;76.30
2363;DHT22;64265;51.664;7.626;2023-03-23T10:47:49;20.60;76.50
2363;DHT22;64265;51.664;7.626;2023-03-23T10:50:23;20.70;76.60
2363;DHT22;64265;51.664;7.626;2023-03-23T10:52:51;20.80;76.70
2363;DHT22;64265;51.664;7.626;2023-03-23T10:55:20;20.80;76.70
2363;DHT22;64265;51.664;7.626;2023-03-23T10:57:59;20.90;76.80
2363;DHT22;64265;51.664;7.626;2023-03-23T11:00:29;20.90;76.90
2363;DHT22;64265;51.664;7.626;2023-03-23T11:03:01;20.90;77.00
2363;DHT22;64265;51.664;7.626;2023-03-23T11:05:34;20.90;77.10
2363;DHT22;64265;51.664;7.626;2023-03-23T11:08:03;21.00;77.20
2363;DHT22;64265;51.664;7.626;2023-03-23T11:10:36;21.00;77.40
2363;DHT22;64265;51.664;7.626;2023-03-23T11:13:03;21.00;77.50
2363;DHT22;64265;51.664;7.626;2023-03-23T11:15:37;21.00;77.50
2363;DHT22;64265;51.664;7.626;2023-03-23T11:18:09;21.00;77.60
2363;DHT22;64265;51.664;7.626;2023-03-23T11:20:39;21.00;77.60
2363;DHT22;64265;51.664;7.626;2023-03-23T11:23:20;21.10;77.80
2363;DHT22;64265;51.664;7.626;2023-03-23T11:25:56;21.10;77.80
2363;DHT22;64265;51.664;7.626;2023-03-23T11:28:29;21.10;77.90
2363;DHT22;64265;51.664;7.626;2023-03-23T11:30:59;21.10;77.90
2363;DHT22;64265;51.664;7.626;2023-03-23T11:33:35;21.10;77.90
2363;DHT22;64265;51.664;7.626;2023-03-23T11:36:03;21.10;78.00
2363;DHT22;64265;51.664;7.626;2023-03-23T11:38:30;21.10;77.80
2363;DHT22;64265;51.664;7.626;2023-03-23T11:40:59;21.00;77.70
2363;DHT22;64265;51.664;7.626;2023-03-23T11:43:26;21.10;77.80
2363;DHT22;64265;51.664;7.626;2023-03-23T11:46:13;21.10;77.80
2363;DHT22;64265;51.664;7.626;2023-03-23T11:48:46;21.10;77.80
2363;DHT22;64265;51.664;7.626;2023-03-23T11:51:20;21.10;77.80
2363;DHT22;64265;51.664;7.626;2023-03-23T11:53:55;21.10;77.80
2363;DHT22;64265;51.664;7.626;2023-03-23T11:56:25;21.20;77.90
2363;DHT22;64265;51.664;7.626;2023-03-23T11:58:55;21.20;78.70
2363;DHT22;64265;51.664;7.626;2023-03-23T12:01:39;21.20;78.70
2363;DHT22;64265;51.664;7.626;2023-03-23T12:07:18;21.20;77.90
2363;DHT22;64265;51.664;7.626;2023-03-23T12:09:53;21.30;78.10
2363;DHT22;64265;51.664;7.626;2023-03-23T12:12:27;21.20;78.00
2363;DHT22;64265;51.664;7.626;2023-03-23T12:15:04;21.30;78.10
2363;DHT22;64265;51.664;7.626;2023-03-23T12:17:44;21.30;78.10
2363;DHT22;64265;51.664;7.626;2023-03-23T12:20:21;21.30;78.10
2363;DHT22;64265;51.664;7.626;2023-03-23T12:22:58;21.30;78.10
2363;DHT22;64265;51.664;7.626;2023-03-23T12:25:43;21.30;78.10
2363;DHT22;64265;51.664;7.626;2023-03-23T12:28:21;21.30;78.00
2363;DHT22;64265;51.664;7.626;2023-03-23T12:30:54;21.30;78.10
2363;DHT22;64265;51.664;7.626;2023-03-23T12:33:30;21.30;78.10
2363;DHT22;64265;51.664;7.626;2023-03-23T12:36:07;21.30;78.10
2363;DHT22;64265;51.664;7.626;2023-03-23T12:39:03;21.30;78.10
2363;DHT22;64265;51.664;7.626;2023-03-23T12:41:36;21.40;78.20
2363;DHT22;64265;51.664;7.626;2023-03-23T12:44:06;21.40;78.30
2363;DHT22;64265;51.664;7.626;2023-03-23T12:49:35;21.40;78.40
2363;DHT22;64265;51.664;7.626;2023-03-23T12:52:10;21.40;79.20
2363;DHT22;64265;51.664;7.626;2023-03-23T12:54:42;21.40;78.40
2363;DHT22;64265;51.664;7.626;2023-03-23T12:57:17;21.40;78.40
2363;DHT22;64265;51.664;7.626;2023-03-23T12:59:49;21.40;78.40
2363;DHT22;64265;51.664;7.626;2023-03-23T13:02:21;21.40;78.50
2363;DHT22;64265;51.664;7.626;2023-03-23T13:04:55;21.40;78.50
2363;DHT22;64265;51.664;7.626;2023-03-23T13:07:26;21.40;78.50
2363;DHT22;64265;51.664;7.626;2023-03-23T13:10:01;21.40;78.50
2363;DHT22;64265;51.664;7.626;2023-03-23T13:12:29;21.40;78.50
2363;DHT22;64265;51.664;7.626;2023-03-23T13:15:03;21.30;78.40
2363;DHT22;64265;51.664;7.626;2023-03-23T13:17:39;21.30;78.50
2363;DHT22;64265;51.664;7.626;2023-03-23T13:20:37;21.30;78.40
2363;DHT22;64265;51.664;7.626;2023-03-23T13:23:11;21.30;78.40
2363;DHT22;64265;51.664;7.626;2023-03-23T13:26:03;21.30;78.30
2363;DHT22;64265;51.664;7.626;2023-03-23T13:28:48;21.30;78.20
2363;DHT22;64265;51.664;7.626;2023-03-23T13:31:19;21.30;78.20
2363;DHT22;64265;51.664;7.626;2023-03-23T13:33:52;21.30;78.30
2363;DHT22;64265;51.664;7.626;2023-03-23T13:36:29;21.30;78.30
2363;DHT22;64265;51.664;7.626;2023-03-23T13:38:58;21.30;78.30
2363;DHT22;64265;51.664;7.626;2023-03-23T13:41:26;21.30;78.40
2363;DHT22;64265;51.664;7.626;2023-03-23T13:44:05;21.40;78.50
2363;DHT22;64265;51.664;7.626;2023-03-23T13:46:41;21.40;78.40
2363;DHT22;64265;51.664;7.626;2023-03-23T13:49:18;21.40;78.20
2363;DHT22;64265;51.664;7.626;2023-03-23T13:52:06;21.40;78.20
2363;DHT22;64265;51.664;7.626;2023-03-23T13:54:43;21.50;78.30
2363;DHT22;64265;51.664;7.626;2023-03-23T13:57:34;21.50;78.30
2363;DHT22;64265;51.664;7.626;2023-03-23T14:00:25;21.50;78.30
2363;DHT22;64265;51.664;7.626;2023-03-23T14:02:59;21.50;78.30
2363;DHT22;64265;51.664;7.626;2023-03-23T14:05:32;21.50;78.30
2363;DHT22;64265;51.664;7.626;2023-03-23T14:08:09;21.50;78.40
2363;DHT22;64265;51.664;7.626;2023-03-23T14:10:39;21.60;78.50
2363;DHT22;64265;51.664;7.626;2023-03-23T14:13:11;21.60;78.50
2363;DHT22;64265;51.664;7.626;2023-03-23T14:15:42;21.60;78.50
2363;DHT22;64265;51.664;7.626;2023-03-23T14:18:14;21.60;78.60
2363;DHT22;64265;51.664;7.626;2023-03-23T14:20:42;21.60;78.60
2363;DHT22;64265;51.664;7.626;2023-03-23T14:23:18;21.60;78.70
2363;DHT22;64265;51.664;7.626;2023-03-23T14:25:54;21.60;78.60
2363;DHT22;64265;51.664;7.626;2023-03-23T14:28:21;21.60;78.70
2363;DHT22;64265;51.664;7.626;2023-03-23T14:30:52;21.60;78.70
2363;DHT22;64265;51.664;7.626;2023-03-23T14:33:20;21.60;78.70
2363;DHT22;64265;51.664;7.626;2023-03-23T14:35:47;21.60;78.70
2363;DHT22;64265;51.664;7.626;2023-03-23T14:38:17;21.60;78.70
2363;DHT22;64265;51.664;7.626;2023-03-23T14:40:45;21.60;78.70
2363;DHT22;64265;51.664;7.626;2023-03-23T14:43:15;21.60;78.70
2363;DHT22;64265;51.664;7.626;2023-03-23T14:45:43;21.60;78.80
2363;DHT22;64265;51.664;7.626;2023-03-23T14:48:13;21.60;78.70
2363;DHT22;64265;51.664;7.626;2023-03-23T14:50:48;21.60;78.70
2363;DHT22;64265;51.664;7.626;2023-03-23T14:53:19;21.60;78.70
2363;DHT22;64265;51.664;7.626;2023-03-23T14:55:49;21.60;79.40
2363;DHT22;64265;51.664;7.626;2023-03-23T14:58:17;21.50;78.30
2363;DHT22;64265;51.664;7.626;2023-03-23T15:00:48;21.40;78.00
2363;DHT22;64265;51.664;7.626;2023-03-23T15:03:17;21.40;78.10
2363;DHT22;64265;51.664;7.626;2023-03-23T15:05:47;21.50;78.10
2363;DHT22;64265;51.664;7.626;2023-03-23T15:08:20;21.50;78.10
2363;DHT22;64265;51.664;7.626;2023-03-23T15:10:52;21.60;78.20
2363;DHT22;64265;51.664;7.626;2023-03-23T15:13:20;21.60;78.10
2363;DHT22;64265;51.664;7.626;2023-03-23T15:15:47;21.60;78.10
2363;DHT22;64265;51.664;7.626;2023-03-23T15:18:34;21.60;78.20
2363;DHT22;64265;51.664;7.626;2023-03-23T15:21:09;21.60;78.40
2363;DHT22;64265;51.664;7.626;2023-03-23T15:23:43;21.70;78.40
2363;DHT22;64265;51.664;7.626;2023-03-23T15:26:23;21.70;78.40
2363;DHT22;64265;51.664;7.626;2023-03-23T15:28:50;21.70;78.40
2363;DHT22;64265;51.664;7.626;2023-03-23T15:31:27;21.70;78.40
2363;DHT22;64265;51.664;7.626;2023-03-23T15:33:58;21.70;78.50
2363;DHT22;64265;51.664;7.626;2023-03-23T15:36:25;21.70;78.50
2363;DHT22;64265;51.664;7.626;2023-03-23T15:38:58;21.70;78.50
2363;DHT22;64265;51.664;7.626;2023-03-23T15:41:28;21.70;78.50
2363;DHT22;64265;51.664;7.626;2023-03-23T15:43:57;21.70;78.60
2363;DHT22;64265;51.664;7.626;2023-03-23T15:46:26;21.70;78.60
2363;DHT22;64265;51.664;7.626;2023-03-23T15:48:54;21.70;78.60
2363;DHT22;64265;51.664;7.626;2023-03-23T15:51:30;21.70;78.70
2363;DHT22;64265;51.664;7.626;2023-03-23T15:53:59;21.70;78.70
2363;DHT22;64265;51.664;7.626;2023-03-23T15:56:25;21.70;78.70
2363;DHT22;64265;51.664;7.626;2023-03-23T15:58:53;21.80;78.80
2363;DHT22;64265;51.664;7.626;2023-03-23T16:01:22;21.80;78.80
2363;DHT22;64265;51.664;7.626;2023-03-23T16:03:52;21.70;78.70
2363;DHT22;64265;51.664;7.626;2023-03-23T16:06:22;21.70;78.70
2363;DHT22;64265;51.664;7.626;2023-03-23T16:08:50;21.70;78.70
2363;DHT22;64265;51.664;7.626;2023-03-23T16:11:18;21.70;78.80
2363;DHT22;64265;51.664;7.626;2023-03-23T16:13:45;21.70;78.80
2363;DHT22;64265;51.664;7.626;2023-03-23T16:16:15;21.70;78.80